Time;durP1;ratioP1;P1;durP2;ratioP2;P2;SDS_P1;SDS_P2;PMS_P1;PMS_P2;Temp;Humidity;BMP_temperature;BMP_pressure;BME280_temperature;BME280_humidity;BME280_pressure;Samples;Min_cycle;Max_cycle;Signal;HPM_P1;HPM_P2
2023/08/11 00:01:23;;;;;;;10.57;7.10;;;17.60;99.90;;;;;;5063637;28;20668;-78
2023/08/11 00:03:48;;;;;;;10.33;6.90;;;17.30;99.90;;;;;;5040348;28;20428;-77
2023/08/11 00:06:16;;;;;;;11.63;6.57;;;17.10;99.90;;;;;;5089861;28;20418;-78
2023/08/11 00:08:42;;;;;;;9.07;6.55;;;17.30;99.90;;;;;;5053642;28;20411;-78
2023/08/11 00:11:11;;;;;;;8.98;6.88;;;17.30;99.90;;;;;;5056400;28;20428;-78
2023/08/11 00:13:36;;;;;;;9.73;6.78;;;17.10;99.90;;;;;;5048861;28;20423;-79
2023/08/11 00:16:03;;;;;;;8.97;6.70;;;17.10;99.90;;;;;;5044207;28;20415;-78
2023/08/11 00:18:29;;;;;;;8.52;6.43;;;17.00;99.90;;;;;;5053949;28;20496;-78
2023/08/11 00:20:55;;;;;;;9.33;6.43;;;16.90;99.90;;;;;;5052348;28;20406;-78
2023/08/11 00:23:21;;;;;;;14.10;6.90;;;17.30;99.90;;;;;;5043026;28;20429;-78
2023/08/11 00:25:47;;;;;;;9.07;6.82;;;16.90;99.90;;;;;;5043953;28;20449;-78
2023/08/11 00:28:13;;;;;;;9.20;6.50;;;17.00;99.90;;;;;;5053639;28;20518;-77
2023/08/11 00:30:38;;;;;;;9.05;6.53;;;16.90;99.90;;;;;;5056804;28;20516;-77
2023/08/11 00:33:05;;;;;;;7.93;6.43;;;16.80;99.90;;;;;;5058937;28;20437;-78
2023/08/11 00:35:31;;;;;;;10.38;7.10;;;16.80;99.90;;;;;;5056544;28;20510;-78
2023/08/11 00:37:57;;;;;;;10.60;6.45;;;16.90;99.90;;;;;;5017752;28;20893;-78
2023/08/11 00:40:23;;;;;;;12.10;6.95;;;16.90;99.90;;;;;;5036025;28;20422;-78
2023/08/11 00:42:50;;;;;;;8.37;6.50;;;16.70;99.90;;;;;;5034497;28;20464;-78
2023/08/11 00:45:16;;;;;;;10.32;6.43;;;16.80;99.90;;;;;;5056001;28;20408;-78
2023/08/11 00:47:42;;;;;;;12.45;6.72;;;16.70;99.90;;;;;;5050061;28;20425;-79
2023/08/11 00:50:12;;;;;;;9.00;6.88;;;16.70;99.90;;;;;;5039050;28;20455;-77
2023/08/11 00:52:38;;;;;;;9.90;7.00;;;16.70;99.90;;;;;;5043862;28;20450;-78
2023/08/11 00:55:07;;;;;;;8.75;6.50;;;16.70;99.90;;;;;;5056000;28;20429;-77
2023/08/11 00:57:34;;;;;;;11.38;6.85;;;16.60;99.90;;;;;;5054239;28;20399;-77
2023/08/11 01:00:05;;;;;;;10.80;7.22;;;16.50;99.90;;;;;;5040997;28;20433;-77
2023/08/11 01:02:31;;;;;;;13.07;7.60;;;16.50;99.90;;;;;;5051297;28;20425;-78
2023/08/11 01:04:56;;;;;;;10.00;7.00;;;16.70;99.90;;;;;;5047527;28;20434;-78
2023/08/11 01:07:30;;;;;;;9.57;7.13;;;16.60;99.90;;;;;;5039965;28;20418;-78
2023/08/11 01:10:06;;;;;;;9.27;6.78;;;16.40;99.90;;;;;;5052067;28;20421;-78
2023/08/11 01:12:47;;;;;;;9.90;7.30;;;16.40;99.90;;;;;;5040749;28;20752;-78
2023/08/11 01:15:51;;;;;;;10.85;7.75;;;16.60;99.90;;;;;;5036595;28;20937;-78
2023/08/11 01:18:18;;;;;;;10.13;7.53;;;16.40;99.90;;;;;;5000126;28;20950;-78
2023/08/11 01:20:48;;;;;;;10.15;7.95;;;16.40;99.90;;;;;;5051720;28;20421;-79
2023/08/11 01:23:21;;;;;;;11.40;8.10;;;16.40;99.90;;;;;;5048525;28;20423;-77
2023/08/11 01:25:48;;;;;;;9.32;7.70;;;16.40;99.90;;;;;;5057283;28;20490;-77
2023/08/11 01:28:14;;;;;;;10.90;8.20;;;16.30;99.90;;;;;;5040229;28;20408;-77
2023/08/11 01:30:39;;;;;;;11.10;8.88;;;16.30;99.90;;;;;;5055870;28;20763;-78
2023/08/11 01:33:05;;;;;;;12.13;8.40;;;16.20;99.90;;;;;;5032680;28;20421;-78
2023/08/11 01:35:31;;;;;;;12.90;9.13;;;16.10;99.90;;;;;;5028184;28;20428;-78
2023/08/11 01:37:57;;;;;;;17.13;8.90;;;16.00;99.90;;;;;;5037221;28;20420;-77
2023/08/11 01:40:23;;;;;;;12.45;9.57;;;16.30;99.90;;;;;;5055392;28;20408;-78
2023/08/11 01:42:50;;;;;;;12.15;9.23;;;16.20;99.90;;;;;;5039830;28;20430;-78
2023/08/11 01:45:17;;;;;;;10.73;9.50;;;16.10;99.90;;;;;;5019683;28;20424;-78
2023/08/11 01:47:47;;;;;;;11.82;9.93;;;16.20;99.90;;;;;;5032425;28;20979;-77
2023/08/11 01:50:14;;;;;;;12.80;10.60;;;16.10;99.90;;;;;;5031541;28;20415;-77
2023/08/11 01:52:43;;;;;;;14.13;10.43;;;16.10;99.90;;;;;;5043136;28;20423;-77
2023/08/11 01:55:10;;;;;;;14.18;11.18;;;16.00;99.90;;;;;;5052114;28;20425;-77
2023/08/11 01:57:40;;;;;;;14.18;11.20;;;15.90;99.90;;;;;;5055507;28;20485;-78
2023/08/11 02:00:12;;;;;;;17.27;11.30;;;15.80;99.90;;;;;;5051230;28;20492;-78
2023/08/11 02:02:43;;;;;;;15.32;11.80;;;15.70;99.90;;;;;;5037443;28;20488;-77
2023/08/11 02:05:13;;;;;;;13.07;11.13;;;15.90;99.90;;;;;;5038732;28;20434;-77
2023/08/11 02:07:39;;;;;;;21.40;12.00;;;15.80;99.90;;;;;;5037017;28;20471;-78
2023/08/11 02:10:06;;;;;;;17.20;12.15;;;16.10;99.90;;;;;;5054335;28;20464;-78
2023/08/11 02:12:32;;;;;;;15.18;12.55;;;16.00;99.90;;;;;;5055731;28;20462;-78
2023/08/11 02:14:58;;;;;;;14.82;12.68;;;15.80;99.90;;;;;;5037010;28;20454;-78
2023/08/11 02:17:24;;;;;;;16.00;12.98;;;15.80;99.90;;;;;;5049481;28;20422;-78
2023/08/11 02:19:50;;;;;;;18.17;13.07;;;15.80;99.90;;;;;;5053150;28;20480;-78
2023/08/11 02:22:16;;;;;;;16.63;13.33;;;15.80;99.90;;;;;;5036987;28;20427;-78
2023/08/11 02:24:42;;;;;;;20.53;13.87;;;15.80;99.90;;;;;;5049500;28;20957;-77
2023/08/11 02:27:09;;;;;;;15.43;13.70;;;15.80;99.90;;;;;;5054860;28;20838;-78
2023/08/11 02:29:35;;;;;;;18.42;13.70;;;15.70;99.90;;;;;;5050953;28;20453;-78
2023/08/11 02:32:03;;;;;;;16.85;13.80;;;15.90;99.90;;;;;;5019328;28;20397;-78
2023/08/11 02:34:30;;;;;;;20.80;14.40;;;15.80;99.90;;;;;;5044339;28;20458;-78
2023/08/11 02:36:56;;;;;;;16.93;14.60;;;15.50;99.90;;;;;;5053251;28;20422;-78
2023/08/11 02:39:22;;;;;;;19.00;14.90;;;15.70;99.90;;;;;;5025317;28;20411;-78
2023/08/11 02:41:47;;;;;;;18.33;14.30;;;15.60;99.90;;;;;;5054983;28;20914;-78
2023/08/11 02:44:13;;;;;;;17.00;15.20;;;15.50;99.90;;;;;;5031692;28;20431;-77
2023/08/11 02:46:39;;;;;;;21.30;16.35;;;15.50;99.90;;;;;;5050380;28;20967;-78
2023/08/11 02:49:04;;;;;;;21.67;16.65;;;15.90;99.90;;;;;;5019056;28;20479;-77
2023/08/11 02:51:30;;;;;;;22.83;17.07;;;15.70;99.90;;;;;;5035819;28;20450;-77
2023/08/11 02:53:56;;;;;;;22.17;16.80;;;15.50;99.90;;;;;;5039018;28;20465;-78
2023/08/11 02:56:21;;;;;;;22.05;16.67;;;15.50;99.90;;;;;;5025708;28;20539;-78
2023/08/11 02:58:48;;;;;;;22.83;17.75;;;15.40;99.90;;;;;;5034847;28;20504;-78
2023/08/11 03:01:14;;;;;;;20.45;16.90;;;15.60;99.90;;;;;;5053088;28;20422;-78
2023/08/11 03:03:42;;;;;;;20.92;17.17;;;15.50;99.90;;;;;;5074247;28;20505;-79
2023/08/11 03:06:12;;;;;;;25.30;17.93;;;15.40;99.90;;;;;;5048731;28;20426;-78
2023/08/11 03:08:38;;;;;;;22.67;18.10;;;15.60;99.90;;;;;;5034090;28;20508;-78
2023/08/11 03:11:04;;;;;;;20.95;17.95;;;15.30;99.90;;;;;;5053158;28;20930;-79
2023/08/11 03:13:29;;;;;;;23.02;18.73;;;15.40;99.90;;;;;;5038817;28;20476;-78
2023/08/11 03:15:55;;;;;;;23.77;18.73;;;15.60;99.90;;;;;;5046199;28;20417;-78
2023/08/11 03:18:22;;;;;;;22.77;19.08;;;14.70;99.90;;;;;;5019319;28;20486;-78
2023/08/11 03:20:48;;;;;;;22.27;19.45;;;15.50;99.90;;;;;;5033721;28;20432;-79
2023/08/11 03:23:14;;;;;;;23.13;19.70;;;15.30;99.90;;;;;;5032861;28;20419;-79
2023/08/11 03:25:40;;;;;;;22.15;19.10;;;15.40;99.90;;;;;;5045400;28;20764;-78
2023/08/11 03:28:06;;;;;;;22.67;19.58;;;15.10;99.90;;;;;;5053608;28;20419;-79
2023/08/11 03:30:31;;;;;;;23.50;20.90;;;15.30;99.90;;;;;;5053752;28;20417;-79
2023/08/11 03:32:57;;;;;;;22.90;19.90;;;15.10;99.90;;;;;;5069260;28;20435;-79
2023/08/11 03:35:23;;;;;;;22.30;19.93;;;15.10;99.90;;;;;;5050776;28;20424;-79
2023/08/11 03:37:49;;;;;;;25.00;20.10;;;15.10;99.90;;;;;;5049932;28;20431;-78
2023/08/11 03:40:16;;;;;;;25.87;20.20;;;15.10;99.90;;;;;;5035557;28;20426;-77
2023/08/11 03:42:42;;;;;;;24.13;19.80;;;15.00;99.90;;;;;;5044379;28;20769;-78
2023/08/11 03:45:13;;;;;;;23.48;20.05;;;15.20;99.90;;;;;;5029721;28;20421;-78
2023/08/11 03:47:42;;;;;;;26.47;20.93;;;15.00;99.90;;;;;;5040058;28;20433;-78
2023/08/11 03:50:09;;;;;;;24.63;20.85;;;15.10;99.90;;;;;;5031161;28;20417;-78
2023/08/11 03:52:36;;;;;;;25.10;20.50;;;15.10;99.90;;;;;;5049442;28;20563;-77
2023/08/11 03:55:03;;;;;;;28.83;20.50;;;15.00;99.90;;;;;;5033692;28;20425;-78
2023/08/11 03:57:28;;;;;;;24.85;19.98;;;14.90;99.90;;;;;;5031716;28;20446;-78
2023/08/11 03:59:54;;;;;;;25.70;21.40;;;15.00;99.90;;;;;;5048113;28;20412;-78
2023/08/11 04:02:20;;;;;;;31.53;20.93;;;14.90;99.90;;;;;;5037991;28;20403;-77
2023/08/11 04:04:46;;;;;;;23.27;20.77;;;14.90;99.90;;;;;;5028202;28;20924;-78
2023/08/11 04:07:12;;;;;;;25.77;20.48;;;15.00;99.90;;;;;;5033748;28;20421;-77
2023/08/11 04:09:43;;;;;;;25.80;19.98;;;15.10;99.90;;;;;;5051478;28;20442;-79
2023/08/11 04:12:10;;;;;;;22.50;20.10;;;15.10;99.90;;;;;;5053367;28;20482;-78
2023/08/11 04:14:39;;;;;;;24.95;20.52;;;15.00;99.90;;;;;;5048893;28;20910;-78
2023/08/11 04:17:04;;;;;;;23.88;20.10;;;14.80;99.90;;;;;;5050029;28;20917;-78
2023/08/11 04:19:32;;;;;;;23.40;19.35;;;15.10;99.90;;;;;;5033947;28;20410;-79
2023/08/11 04:21:57;;;;;;;21.75;19.08;;;14.90;99.90;;;;;;5035567;28;20424;-78
2023/08/11 04:24:23;;;;;;;22.30;18.83;;;14.90;99.90;;;;;;5041472;28;20750;-78
2023/08/11 04:26:51;;;;;;;22.45;19.10;;;15.00;99.90;;;;;;5048037;28;20455;-79
2023/08/11 04:29:17;;;;;;;24.57;19.20;;;15.10;99.90;;;;;;5041483;28;20410;-79
2023/08/11 04:31:42;;;;;;;22.42;18.92;;;15.20;99.90;;;;;;5029476;28;20510;-79
2023/08/11 04:34:10;;;;;;;22.67;18.73;;;15.00;99.90;;;;;;5040163;28;20514;-78
2023/08/11 04:36:36;;;;;;;23.08;18.58;;;15.20;99.90;;;;;;5034036;28;20466;-77
2023/08/11 04:39:01;;;;;;;22.52;18.38;;;15.10;99.90;;;;;;5040893;28;20431;-78
2023/08/11 04:41:27;;;;;;;21.85;17.10;;;15.20;99.90;;;;;;5056841;28;20419;-78
2023/08/11 04:43:53;;;;;;;23.07;18.10;;;15.40;99.90;;;;;;5027296;28;20486;-78
2023/08/11 04:46:19;;;;;;;20.53;17.77;;;15.10;99.90;;;;;;5039353;28;20417;-79
2023/08/11 04:48:44;;;;;;;21.98;17.88;;;15.30;99.90;;;;;;5051508;28;20434;-78
2023/08/11 04:51:10;;;;;;;21.73;17.75;;;15.10;99.90;;;;;;5057521;28;20416;-78
2023/08/11 04:53:36;;;;;;;19.15;17.05;;;15.10;99.90;;;;;;5040716;28;20424;-78
2023/08/11 04:56:03;;;;;;;21.55;17.10;;;15.10;99.90;;;;;;5039844;28;20970;-79
2023/08/11 04:58:28;;;;;;;19.60;16.38;;;15.40;99.90;;;;;;5037348;28;20547;-78
2023/08/11 05:00:54;;;;;;;20.53;16.30;;;15.20;99.90;;;;;;5055188;28;20487;-78
2023/08/11 05:03:20;;;;;;;18.43;15.87;;;15.40;99.90;;;;;;5037273;28;20421;-79
2023/08/11 05:05:46;;;;;;;17.73;15.13;;;15.40;99.90;;;;;;5054710;28;20458;-79
2023/08/11 05:08:12;;;;;;;18.65;15.18;;;15.60;99.90;;;;;;5031741;28;20415;-79
2023/08/11 05:10:37;;;;;;;18.25;14.32;;;15.30;99.90;;;;;;5037860;28;20417;-79
2023/08/11 05:13:04;;;;;;;21.27;14.63;;;15.50;99.90;;;;;;5036296;28;20459;-79
2023/08/11 05:15:30;;;;;;;17.20;14.77;;;15.40;99.90;;;;;;5022788;28;20546;-79
2023/08/11 05:17:56;;;;;;;17.97;13.57;;;15.80;99.90;;;;;;5061103;28;20425;-79
2023/08/11 05:20:22;;;;;;;17.23;14.03;;;15.50;99.90;;;;;;5037573;28;20408;-79
2023/08/11 05:22:48;;;;;;;18.88;13.80;;;15.80;99.90;;;;;;5040530;28;20412;-79
2023/08/11 05:25:14;;;;;;;19.42;13.38;;;15.80;99.90;;;;;;5044981;28;20420;-78
2023/08/11 05:27:40;;;;;;;15.15;13.23;;;15.70;99.90;;;;;;5040161;28;20457;-79
2023/08/11 05:30:07;;;;;;;15.95;13.23;;;16.10;99.90;;;;;;5038884;28;20506;-79
2023/08/11 05:32:33;;;;;;;16.02;13.00;;;15.90;99.90;;;;;;5044135;28;20805;-79
2023/08/11 05:34:59;;;;;;;16.80;12.70;;;15.90;99.90;;;;;;5034068;28;20438;-80
2023/08/11 05:37:25;;;;;;;18.50;12.43;;;15.60;99.90;;;;;;5069407;28;20411;-80
2023/08/11 05:39:52;;;;;;;17.55;12.52;;;15.90;99.90;;;;;;5051377;28;20579;-79
2023/08/11 05:42:18;;;;;;;15.90;12.05;;;16.10;99.90;;;;;;5053853;28;20418;-79
2023/08/11 05:44:44;;;;;;;13.98;11.60;;;16.40;99.90;;;;;;5038828;28;20421;-79
2023/08/11 05:47:10;;;;;;;14.13;11.75;;;16.20;99.90;;;;;;5048439;28;20429;-79
2023/08/11 05:49:36;;;;;;;14.43;11.80;;;16.20;99.90;;;;;;5056161;28;20414;-81
2023/08/11 05:52:01;;;;;;;15.15;12.10;;;16.40;99.90;;;;;;5055651;28;20433;-80
2023/08/11 05:54:27;;;;;;;14.50;12.40;;;16.60;99.90;;;;;;5052317;28;20452;-81
2023/08/11 05:56:54;;;;;;;15.05;12.20;;;16.40;99.90;;;;;;5042018;28;20444;-80
2023/08/11 05:59:23;;;;;;;15.00;11.88;;;16.40;99.90;;;;;;5064245;28;20397;-80
2023/08/11 06:01:49;;;;;;;18.23;11.32;;;16.60;99.90;;;;;;5031608;28;20428;-82
2023/08/11 06:04:15;;;;;;;13.85;10.93;;;16.70;99.90;;;;;;5052303;28;20798;-81
2023/08/11 06:06:41;;;;;;;14.00;10.82;;;16.80;99.90;;;;;;5028475;28;20424;-80
2023/08/11 06:09:07;;;;;;;14.23;10.90;;;16.60;99.90;;;;;;5063881;28;20919;-82
2023/08/11 06:11:33;;;;;;;13.32;10.95;;;17.20;99.90;;;;;;5046632;28;20788;-80
2023/08/11 06:13:59;;;;;;;16.03;10.90;;;17.10;99.90;;;;;;5024225;28;20516;-80
2023/08/11 06:16:25;;;;;;;13.10;10.83;;;16.90;99.90;;;;;;5029448;28;20502;-81
2023/08/11 06:18:50;;;;;;;12.90;10.43;;;17.10;99.90;;;;;;5005680;28;20414;-81
2023/08/11 06:21:19;;;;;;;11.18;9.98;;;17.20;99.90;;;;;;5032527;28;20417;-80
2023/08/11 06:23:45;;;;;;;13.23;10.23;;;16.70;99.90;;;;;;5066936;28;20938;-79
2023/08/11 06:26:11;;;;;;;13.67;9.80;;;17.30;99.90;;;;;;5036128;28;20425;-79
2023/08/11 06:28:37;;;;;;;11.60;9.40;;;17.50;99.90;;;;;;5024922;28;20421;-79
2023/08/11 06:31:03;;;;;;;10.43;9.23;;;17.60;99.90;;;;;;5031066;28;20436;-78
2023/08/11 06:33:29;;;;;;;12.77;8.88;;;17.90;99.90;;;;;;5029830;28;20434;-80
2023/08/11 06:35:54;;;;;;;13.48;9.27;;;17.80;99.90;;;;;;5033151;28;20433;-80
2023/08/11 06:38:20;;;;;;;12.82;9.25;;;18.10;99.90;;;;;;5012523;28;21128;-81
2023/08/11 06:40:47;;;;;;;10.68;8.90;;;18.30;99.90;;;;;;5027737;28;20415;-81
2023/08/11 06:43:13;;;;;;;10.57;8.60;;;18.30;99.90;;;;;;5025336;28;20498;-80
2023/08/11 06:45:38;;;;;;;12.50;8.77;;;18.40;99.90;;;;;;5037813;28;20427;-80
2023/08/11 06:48:04;;;;;;;11.63;8.85;;;18.70;99.90;;;;;;5045003;28;20424;-80
2023/08/11 06:50:30;;;;;;;12.00;8.88;;;18.60;99.90;;;;;;5017107;28;20491;-80
2023/08/11 06:52:56;;;;;;;14.05;8.88;;;18.80;99.90;;;;;;5018574;28;20563;-79
2023/08/11 06:55:21;;;;;;;11.03;8.60;;;18.90;99.90;;;;;;5035630;28;20420;-80
2023/08/11 06:57:47;;;;;;;11.57;8.38;;;19.10;99.90;;;;;;5030914;28;20607;-81
2023/08/11 07:00:13;;;;;;;11.95;8.90;;;19.10;99.90;;;;;;5042797;28;20425;-76
2023/08/11 07:02:39;;;;;;;10.73;8.70;;;19.40;99.90;;;;;;5052241;28;20925;-76
2023/08/11 07:05:05;;;;;;;11.38;8.07;;;19.60;99.90;;;;;;5034586;28;20429;-74
2023/08/11 07:07:31;;;;;;;13.15;8.10;;;18.10;99.90;;;;;;5018108;28;20417;-75
2023/08/11 07:09:56;;;;;;;11.13;8.50;;;20.00;99.90;;;;;;5066057;28;20408;-76
2023/08/11 07:12:22;;;;;;;16.13;8.43;;;20.00;99.90;;;;;;5035747;28;20506;-75
2023/08/11 07:14:48;;;;;;;12.80;8.43;;;19.60;99.90;;;;;;5045904;28;20421;-75
2023/08/11 07:17:14;;;;;;;10.85;8.00;;;20.40;99.90;;;;;;5018091;28;20427;-75
2023/08/11 07:19:39;;;;;;;8.77;7.00;;;20.40;99.90;;;;;;5054295;28;20391;-75
2023/08/11 07:22:05;;;;;;;11.10;8.10;;;20.60;99.90;;;;;;5068256;28;20896;-75
2023/08/11 07:24:31;;;;;;;10.82;7.20;;;20.60;99.90;;;;;;5049239;28;20490;-74
2023/08/11 07:26:57;;;;;;;11.70;7.33;;;20.30;99.90;;;;;;5047790;28;20423;-75
2023/08/11 07:29:23;;;;;;;10.37;6.63;;;20.80;99.90;;;;;;5053074;28;20465;-75
2023/08/11 07:31:48;;;;;;;8.93;6.38;;;20.70;99.90;;;;;;5054196;28;20491;-76
2023/08/11 07:34:14;;;;;;;9.70;6.18;;;20.80;99.90;;;;;;5063177;28;20916;-76
2023/08/11 07:36:40;;;;;;;9.77;6.07;;;21.40;99.90;;;;;;5060784;28;20449;-75
2023/08/11 07:39:08;;;;;;;12.70;5.75;;;21.20;99.90;;;;;;5058988;28;20454;-74
2023/08/11 07:41:35;;;;;;;7.83;5.53;;;21.30;99.90;;;;;;5031841;28;20892;-76
2023/08/11 07:44:01;;;;;;;8.55;5.30;;;21.20;99.90;;;;;;5070156;28;20429;-76
2023/08/11 07:46:26;;;;;;;9.88;5.25;;;21.50;99.90;;;;;;5053201;28;20416;-77
2023/08/11 07:48:52;;;;;;;8.48;4.82;;;21.80;99.90;;;;;;5053065;28;20450;-76
2023/08/11 07:51:18;;;;;;;6.77;5.00;;;22.00;99.90;;;;;;5061364;28;20550;-76
2023/08/11 07:53:46;;;;;;;7.93;4.85;;;21.80;99.90;;;;;;5036770;28;20442;-76
2023/08/11 07:56:13;;;;;;;7.40;4.85;;;22.20;99.90;;;;;;5038543;28;20411;-76
2023/08/11 07:58:39;;;;;;;7.88;4.90;;;22.10;99.90;;;;;;5070906;28;20450;-76
2023/08/11 08:01:08;;;;;;;8.90;4.25;;;22.30;99.90;;;;;;5070461;28;20408;-76
2023/08/11 08:03:34;;;;;;;7.15;4.30;;;22.50;99.90;;;;;;5061509;28;20417;-76
2023/08/11 08:06:02;;;;;;;6.57;4.25;;;20.60;99.90;;;;;;5054220;28;20423;-76
2023/08/11 08:08:28;;;;;;;7.70;4.60;;;22.90;99.90;;;;;;5064300;28;20500;-77
2023/08/11 08:10:54;;;;;;;7.87;4.70;;;22.80;99.90;;;;;;5029388;28;20508;-76
2023/08/11 08:13:20;;;;;;;8.02;4.30;;;22.50;99.90;;;;;;5060035;28;20472;-76
2023/08/11 08:15:45;;;;;;;7.57;4.30;;;23.00;99.90;;;;;;5066669;28;20507;-77
2023/08/11 08:18:11;;;;;;;8.20;3.83;;;22.90;99.90;;;;;;5045574;28;20475;-76
2023/08/11 08:20:37;;;;;;;8.70;4.13;;;23.00;99.90;;;;;;5069076;28;20429;-76
2023/08/11 08:23:03;;;;;;;7.27;4.00;;;23.10;99.90;;;;;;5030135;28;20423;-76
2023/08/11 08:25:28;;;;;;;6.55;3.88;;;23.50;99.90;;;;;;5060168;28;20409;-76
2023/08/11 08:27:54;;;;;;;6.35;4.10;;;23.30;99.90;;;;;;5065584;28;20928;-75
2023/08/11 08:30:21;;;;;;;8.05;3.88;;;23.40;99.90;;;;;;5068056;28;20408;-75
2023/08/11 08:32:46;;;;;;;8.35;3.95;;;23.40;99.90;;;;;;5061893;28;20771;-76
2023/08/11 08:35:12;;;;;;;7.20;3.40;;;21.20;99.90;;;;;;5070561;28;20403;-75
2023/08/11 08:37:38;;;;;;;7.17;3.60;;;23.60;99.90;;;;;;5070147;28;20411;-75
2023/08/11 08:40:05;;;;;;;7.28;3.60;;;23.50;99.90;;;;;;5049492;28;20415;-75
2023/08/11 08:42:31;;;;;;;5.97;3.53;;;23.50;99.90;;;;;;5066333;28;20450;-75
2023/08/11 08:44:57;;;;;;;7.03;3.83;;;23.80;99.90;;;;;;5044460;28;20443;-75
2023/08/11 08:47:24;;;;;;;7.18;3.70;;;23.90;99.90;;;;;;5034911;28;20421;-75
2023/08/11 08:49:51;;;;;;;6.30;3.50;;;22.90;99.90;;;;;;5034856;28;20489;-75
2023/08/11 08:52:17;;;;;;;7.78;3.60;;;24.20;99.90;;;;;;5064322;28;20418;-75
2023/08/11 08:54:44;;;;;;;5.82;3.63;;;24.30;99.90;;;;;;5021453;28;20425;-76
2023/08/11 08:57:10;;;;;;;6.07;3.70;;;24.20;99.90;;;;;;5052891;28;20812;-73
2023/08/11 08:59:39;;;;;;;6.38;3.60;;;24.20;99.90;;;;;;5060099;28;20412;-77
2023/08/11 09:02:06;;;;;;;10.43;3.72;;;24.20;99.90;;;;;;5058859;28;20563;-76
2023/08/11 09:04:33;;;;;;;8.18;3.60;;;24.50;99.90;;;;;;5067259;28;20415;-75
2023/08/11 09:07:00;;;;;;;6.70;3.45;;;24.40;99.90;;;;;;5061936;28;20415;-75
2023/08/11 09:09:27;;;;;;;5.60;3.60;;;24.40;99.90;;;;;;5053210;28;20414;-75
2023/08/11 09:11:53;;;;;;;7.80;3.70;;;24.80;99.90;;;;;;5040164;28;20499;-75
2023/08/11 09:14:20;;;;;;;5.45;3.33;;;25.20;99.90;;;;;;5042115;28;20865;-75
2023/08/11 09:16:48;;;;;;;6.55;3.20;;;24.90;99.90;;;;;;5044308;28;20462;-75
2023/08/11 09:19:15;;;;;;;8.93;4.03;;;24.80;99.90;;;;;;5066546;28;20498;-75
2023/08/11 09:21:43;;;;;;;6.30;3.42;;;24.90;99.90;;;;;;5072224;28;20423;-75
2023/08/11 09:24:12;;;;;;;6.38;3.40;;;25.30;99.90;;;;;;5073993;28;20478;-74
2023/08/11 09:26:42;;;;;;;8.35;3.55;;;25.70;99.90;;;;;;5059093;28;20783;-75
2023/08/11 09:29:09;;;;;;;6.07;3.65;;;25.70;99.90;;;;;;5041561;28;20425;-75
2023/08/11 09:31:37;;;;;;;6.45;3.47;;;25.50;99.90;;;;;;5064065;28;20454;-75
2023/08/11 09:34:16;;;;;;;9.88;3.72;;;25.30;99.90;;;;;;5066674;28;20415;-75
2023/08/11 09:36:43;;;;;;;6.95;3.40;;;25.40;99.90;;;;;;5033502;28;20429;-75
2023/08/11 09:39:10;;;;;;;5.63;3.60;;;25.60;99.90;;;;;;5039518;28;20500;-75
2023/08/11 09:41:43;;;;;;;5.82;3.30;;;25.40;99.90;;;;;;5067293;28;20425;-75
2023/08/11 09:44:15;;;;;;;6.90;3.13;;;25.70;99.90;;;;;;5031250;28;20887;-74
2023/08/11 09:46:42;;;;;;;7.43;3.40;;;26.10;99.90;;;;;;5073095;28;20412;-75
2023/08/11 09:49:08;;;;;;;6.43;3.43;;;26.00;99.90;;;;;;5049321;28;20416;-75
2023/08/11 09:51:35;;;;;;;4.18;2.83;;;26.40;99.90;;;;;;5063443;28;20430;-75
2023/08/11 09:54:05;;;;;;;6.70;3.50;;;27.30;99.90;;;;;;5064631;28;20795;-75
2023/08/11 09:56:42;;;;;;;5.30;3.33;;;26.10;99.90;;;;;;5059145;28;20417;-75
2023/08/11 09:59:14;;;;;;;7.43;3.33;;;26.40;99.90;;;;;;5051348;28;20488;-75
2023/08/11 10:01:43;;;;;;;7.43;3.30;;;26.10;99.90;;;;;;5052800;28;20418;-76
2023/08/11 10:04:27;;;;;;;6.63;3.28;;;26.10;99.90;;;;;;5072790;28;20502;-75
2023/08/11 10:06:57;;;;;;;6.70;3.58;;;26.50;99.90;;;;;;5037354;28;20502;-75
2023/08/11 10:09:24;;;;;;;4.88;3.13;;;26.50;99.90;;;;;;5063647;28;20411;-75
2023/08/11 10:11:52;;;;;;;6.60;2.80;;;26.50;99.90;;;;;;5063096;28;20552;-75
2023/08/11 10:14:20;;;;;;;9.20;3.10;;;26.80;99.90;;;;;;5072833;28;20437;-75
2023/08/11 10:16:46;;;;;;;5.30;3.22;;;26.70;99.90;;;;;;5066593;28;20431;-74
2023/08/11 10:19:13;;;;;;;6.50;3.10;;;26.70;99.90;;;;;;5072391;28;20475;-75
2023/08/11 10:21:40;;;;;;;7.53;3.03;;;27.30;99.90;;;;;;5050979;28;20940;-74
2023/08/11 10:24:06;;;;;;;5.95;3.08;;;27.40;99.90;;;;;;5062983;28;20482;-75
2023/08/11 10:26:33;;;;;;;5.85;3.20;;;27.60;99.90;;;;;;5050958;28;20427;-75
2023/08/11 10:28:59;;;;;;;6.80;3.10;;;27.70;99.90;;;;;;5069717;28;20420;-75
2023/08/11 10:31:25;;;;;;;6.05;3.25;;;27.30;99.90;;;;;;5073247;28;20451;-75
2023/08/11 10:33:52;;;;;;;6.27;3.20;;;27.80;99.90;;;;;;5046477;28;20447;-75
2023/08/11 10:36:23;;;;;;;8.02;3.50;;;27.90;99.90;;;;;;5050093;28;20471;-74
2023/08/11 10:39:07;;;;;;;7.47;3.10;;;27.70;99.90;;;;;;5066977;28;20419;-75
2023/08/11 10:41:33;;;;;;;5.57;2.90;;;27.00;99.90;;;;;;5072372;28;20494;-74
2023/08/11 10:43:59;;;;;;;5.65;2.90;;;27.20;99.90;;;;;;5068209;28;20522;-75
2023/08/11 10:46:30;;;;;;;10.98;3.35;;;27.40;99.90;;;;;;5064005;28;20520;-75
2023/08/11 10:49:20;;;;;;;6.18;2.67;;;27.30;99.90;;;;;;5054729;28;20424;-75
2023/08/11 10:51:46;;;;;;;6.60;2.60;;;27.60;99.90;;;;;;5067545;28;20454;-75
2023/08/11 10:54:25;;;;;;;5.85;2.90;;;27.70;99.90;;;;;;5048688;28;20932;-75
2023/08/11 10:56:52;;;;;;;5.70;2.70;;;28.20;99.90;;;;;;5056840;28;20448;-76
2023/08/11 10:59:21;;;;;;;6.17;2.90;;;28.40;99.90;;;;;;5072448;28;20814;-75
2023/08/11 11:01:49;;;;;;;6.40;2.83;;;28.20;99.90;;;;;;5043726;28;20910;-74
2023/08/11 11:04:16;;;;;;;8.53;2.90;;;28.60;99.90;;;;;;5054588;28;20919;-76
2023/08/11 11:06:45;;;;;;;5.60;2.92;;;28.60;99.90;;;;;;5042787;28;20475;-76
2023/08/11 11:09:11;;;;;;;8.05;3.05;;;28.30;99.90;;;;;;5046099;28;20426;-76
2023/08/11 11:11:37;;;;;;;6.47;2.47;;;28.40;99.90;;;;;;5027260;28;20510;-74
2023/08/11 11:14:04;;;;;;;7.30;2.90;;;28.30;99.90;;;;;;5046159;28;20437;-75
2023/08/11 11:16:32;;;;;;;5.65;2.85;;;28.00;99.90;;;;;;5064285;28;20420;-75
2023/08/11 11:19:06;;;;;;;5.37;3.00;;;28.20;99.90;;;;;;5064985;28;20903;-75
2023/08/11 11:21:32;;;;;;;4.55;2.70;;;28.00;99.90;;;;;;5069087;28;20477;-75
2023/08/11 11:23:58;;;;;;;4.50;2.65;;;28.40;99.90;;;;;;5050092;28;20424;-74
2023/08/11 11:26:24;;;;;;;5.75;2.70;;;28.20;99.90;;;;;;5065423;28;20407;-74
2023/08/11 11:28:50;;;;;;;6.97;2.63;;;28.40;99.90;;;;;;5045617;28;20404;-74
2023/08/11 11:31:17;;;;;;;5.95;2.70;;;28.60;99.90;;;;;;5037581;28;20412;-74
2023/08/11 11:33:43;;;;;;;4.43;2.60;;;28.80;99.90;;;;;;5068066;28;20455;-74
2023/08/11 11:36:10;;;;;;;4.85;2.63;;;29.10;99.90;;;;;;5063401;28;20443;-74
2023/08/11 11:38:36;;;;;;;4.35;2.90;;;28.90;99.90;;;;;;5034036;28;20484;-74
2023/08/11 11:41:02;;;;;;;6.88;2.90;;;27.50;99.90;;;;;;5050928;28;20412;-74
2023/08/11 11:43:28;;;;;;;7.10;2.80;;;29.10;99.90;;;;;;5057487;28;20426;-74
2023/08/11 11:45:55;;;;;;;5.70;2.83;;;28.90;99.90;;;;;;5048269;28;20609;-74
2023/08/11 11:48:21;;;;;;;5.95;2.80;;;29.30;99.90;;;;;;5049374;28;20523;-73
2023/08/11 11:50:47;;;;;;;5.85;2.70;;;29.30;99.90;;;;;;5064802;28;20415;-74
2023/08/11 11:53:13;;;;;;;6.50;2.70;;;29.50;99.80;;;;;;5050022;28;20433;-74
2023/08/11 11:55:46;;;;;;;6.35;2.80;;;29.70;99.90;;;;;;5044474;28;20416;-74
2023/08/11 11:58:16;;;;;;;5.72;2.85;;;29.90;99.50;;;;;;5067370;28;20417;-74
2023/08/11 12:00:45;;;;;;;6.18;2.85;;;30.20;99.40;;;;;;5061255;28;20411;-74
2023/08/11 12:03:11;;;;;;;5.50;2.80;;;30.00;99.10;;;;;;5067919;28;20484;-74
2023/08/11 12:05:37;;;;;;;5.75;2.70;;;30.30;99.10;;;;;;5067028;28;20507;-74
2023/08/11 12:08:23;;;;;;;5.50;2.90;;;30.10;98.90;;;;;;5067945;28;20485;-74
2023/08/11 12:10:49;;;;;;;5.25;2.72;;;29.90;98.70;;;;;;5065061;28;20759;-74
2023/08/11 12:13:16;;;;;;;5.93;2.72;;;29.70;99.50;;;;;;5041893;28;20424;-74
2023/08/11 12:15:43;;;;;;;5.82;2.63;;;29.40;99.50;;;;;;5042131;28;20456;-74
2023/08/11 12:18:10;;;;;;;5.60;2.65;;;29.50;99.10;;;;;;5038991;28;20747;-74
2023/08/11 12:20:36;;;;;;;10.85;2.80;;;29.40;99.20;;;;;;5068642;28;20421;-74
2023/08/11 12:23:02;;;;;;;6.17;2.80;;;29.80;99.20;;;;;;5058219;28;20423;-75
2023/08/11 12:25:28;;;;;;;5.82;2.70;;;29.90;99.00;;;;;;5040707;28;20428;-75
2023/08/11 12:27:54;;;;;;;6.57;2.90;;;30.30;99.50;;;;;;5047625;28;20779;-75
2023/08/11 12:30:20;;;;;;;6.75;3.17;;;30.90;99.10;;;;;;5051757;28;20423;-75
2023/08/11 12:32:46;;;;;;;6.00;2.70;;;30.90;98.90;;;;;;5082991;28;20954;-74
2023/08/11 12:35:12;;;;;;;6.68;2.90;;;31.00;98.30;;;;;;5041329;28;20438;-75
2023/08/11 12:37:38;;;;;;;5.57;2.90;;;30.90;98.60;;;;;;5068304;28;20411;-75